createdAt,value
2018-05-17T00:01:57.840Z,72.60
2018-05-17T00:04:27.665Z,72.50
2018-05-17T00:06:53.983Z,72.20
2018-05-17T00:09:20.726Z,72.30
2018-05-17T00:11:50.594Z,72.00
2018-05-17T00:14:16.838Z,71.50
2018-05-17T00:16:44.749Z,71.90
2018-05-17T00:19:10.955Z,71.20
2018-05-17T00:21:41.157Z,71.50
2018-05-17T00:24:07.426Z,71.60
2018-05-17T00:26:34.275Z,71.50
2018-05-17T00:29:02.643Z,71.40
2018-05-17T00:31:29.659Z,71.50
2018-05-17T00:33:56.415Z,71.30
2018-05-17T00:36:22.661Z,71.20
2018-05-17T00:38:53.568Z,71.80
2018-05-17T00:41:19.825Z,71.50
2018-05-17T00:43:49.372Z,71.30
2018-05-17T00:46:16.979Z,70.70
2018-05-17T00:48:45.976Z,70.70
2018-05-17T00:51:12.274Z,70.50
2018-05-17T00:53:45.242Z,70.50
2018-05-17T00:56:13.785Z,70.60
2018-05-17T00:58:40.102Z,70.60
2018-05-17T01:01:09.794Z,70.80
2018-05-17T01:03:37.752Z,70.90
2018-05-17T01:06:16.189Z,71.60
2018-05-17T01:08:45.113Z,71.50
2018-05-17T01:11:12.360Z,71.60
2018-05-17T01:13:40.028Z,71.60
2018-05-17T01:16:08.409Z,71.60
2018-05-17T01:18:35.752Z,72.20
2018-05-17T01:21:06.420Z,71.30
2018-05-17T01:23:37.123Z,71.70
2018-05-17T01:26:05.172Z,71.30
2018-05-17T01:28:33.969Z,71.60
2018-05-17T01:31:01.405Z,71.30
2018-05-17T01:33:31.085Z,71.50
2018-05-17T01:36:07.656Z,71.90
2018-05-17T01:41:20.704Z,71.60
2018-05-17T01:43:47.762Z,71.20
2018-05-17T01:46:19.232Z,71.60
2018-05-17T01:48:46.424Z,71.60
2018-05-17T01:51:12.643Z,71.80
2018-05-17T01:53:38.884Z,71.40
2018-05-17T01:56:05.152Z,71.00
2018-05-17T01:58:32.112Z,71.00
2018-05-17T02:00:58.341Z,71.00
2018-05-17T02:03:25.502Z,71.30
2018-05-17T02:05:51.697Z,70.70
2018-05-17T02:08:18.635Z,70.70
2018-05-17T02:10:44.896Z,70.60
2018-05-17T02:13:11.101Z,70.10
2018-05-17T02:15:38.072Z,70.50
2018-05-17T02:18:04.237Z,70.50
2018-05-17T02:20:30.480Z,70.50
2018-05-17T02:22:57.572Z,70.30
2018-05-17T02:25:24.624Z,69.90
2018-05-17T02:27:50.856Z,69.90
2018-05-17T02:30:17.104Z,70.00
2018-05-17T02:32:43.304Z,70.10
2018-05-17T02:35:10.237Z,69.60
2018-05-17T02:37:37.178Z,69.80
2018-05-17T02:40:04.229Z,69.50
2018-05-17T02:45:22.975Z,69.70
2018-05-17T02:47:49.167Z,69.70
2018-05-17T02:50:15.902Z,69.50
2018-05-17T02:52:42.703Z,69.30
2018-05-17T02:55:09.026Z,69.70
2018-05-17T02:57:35.347Z,69.50
2018-05-17T03:00:01.525Z,70.40
2018-05-17T03:02:27.747Z,70.60
2018-05-17T03:04:54.000Z,70.20
2018-05-17T03:07:21.042Z,70.00
2018-05-17T03:09:47.252Z,69.60
2018-05-17T03:12:14.172Z,69.90
2018-05-17T03:14:40.370Z,69.80
2018-05-17T03:26:52.601Z,70.00
2018-05-17T03:29:19.582Z,68.50
2018-05-17T03:31:46.407Z,68.50
2018-05-17T03:34:12.662Z,68.40
2018-05-17T03:36:39.854Z,68.10
2018-05-17T03:48:51.126Z,68.30
2018-05-17T03:51:17.319Z,68.40
2018-05-17T03:53:43.531Z,68.40
2018-05-17T03:56:10.453Z,66.70
2018-05-17T03:58:36.771Z,66.80
2018-05-17T04:01:15.566Z,68.00
2018-05-17T04:03:53.847Z,67.90
2018-05-17T04:06:32.383Z,67.30
2018-05-17T04:08:58.714Z,67.60
2018-05-17T04:11:26.260Z,66.60
2018-05-17T04:13:52.469Z,66.60
2018-05-17T04:16:18.695Z,66.40
2018-05-17T04:18:45.003Z,66.80
2018-05-17T04:21:11.188Z,66.30
2018-05-17T04:23:38.844Z,65.80
2018-05-17T04:26:06.402Z,66.40
2018-05-17T04:28:35.454Z,66.50
2018-05-17T04:31:03.697Z,66.70
2018-05-17T04:33:31.497Z,66.70
2018-05-17T04:35:57.696Z,66.70
2018-05-17T04:38:24.922Z,64.80
2018-05-17T04:40:51.139Z,66.10
2018-05-17T04:43:17.344Z,66.40
2018-05-17T04:45:44.590Z,65.60
2018-05-17T04:48:25.713Z,66.00
2018-05-17T04:50:52.904Z,65.30
2018-05-17T04:53:20.679Z,65.70
2018-05-17T04:55:49.720Z,65.40
2018-05-17T04:58:17.517Z,65.50
2018-05-17T05:00:47.194Z,64.70
2018-05-17T05:03:16.120Z,64.80
2018-05-17T05:05:47.400Z,64.30
2018-05-17T05:08:18.069Z,64.10
2018-05-17T05:10:46.904Z,65.50
2018-05-17T05:13:14.660Z,65.70
2018-05-17T05:15:42.496Z,65.20
2018-05-17T05:18:13.634Z,65.50
2018-05-17T05:20:42.836Z,65.30
2018-05-17T05:23:10.315Z,65.30
2018-05-17T05:25:38.842Z,64.30
2018-05-17T05:28:10.088Z,64.30
2018-05-17T05:30:39.157Z,64.00
2018-05-17T05:33:06.387Z,64.50
2018-05-17T05:35:33.353Z,62.90
2018-05-17T05:38:00.894Z,62.00
2018-05-17T05:40:30.528Z,60.70
2018-05-17T05:42:56.750Z,60.70
2018-05-17T05:45:25.146Z,60.60
2018-05-17T05:47:51.623Z,59.40
2018-05-17T05:50:18.605Z,59.30
2018-05-17T05:52:47.526Z,61.30
2018-05-17T05:55:13.716Z,61.30
2018-05-17T05:57:41.281Z,59.80
2018-05-17T06:00:08.302Z,60.00
2018-05-17T06:02:35.325Z,60.80
2018-05-17T06:05:02.786Z,60.80
2018-05-17T06:07:31.673Z,58.90
2018-05-17T06:09:59.036Z,59.40
2018-05-17T06:12:28.682Z,58.50
2018-05-17T06:14:55.606Z,58.60
2018-05-17T06:17:22.837Z,58.50
2018-05-17T06:19:49.653Z,58.30
2018-05-17T06:22:19.533Z,59.40
2018-05-17T06:24:47.751Z,59.90
2018-05-17T06:27:14.679Z,61.30
2018-05-17T06:29:42.762Z,60.20
2018-05-17T06:32:10.245Z,60.20
2018-05-17T06:34:38.516Z,60.30
2018-05-17T06:37:05.445Z,60.50
2018-05-17T06:39:33.409Z,60.60
2018-05-17T06:42:16.921Z,60.40
2018-05-17T06:44:44.706Z,60.90
2018-05-17T06:47:10.944Z,60.80
2018-05-17T06:49:37.139Z,61.00
2018-05-17T06:52:04.295Z,60.10
2018-05-17T06:54:33.704Z,59.40
2018-05-17T06:57:02.315Z,60.60
2018-05-17T06:59:35.466Z,59.80
2018-05-17T07:02:03.565Z,58.50
2018-05-17T07:04:33.268Z,59.60
2018-05-17T07:07:04.109Z,59.70
2018-05-17T07:09:32.084Z,60.30
2018-05-17T07:12:00.919Z,59.30
2018-05-17T07:14:27.408Z,59.40
2018-05-17T07:16:54.254Z,59.30
2018-05-17T07:19:21.406Z,58.20
2018-05-17T07:21:48.269Z,59.20
2018-05-17T07:24:16.556Z,58.20
2018-05-17T07:26:43.609Z,58.80
2018-05-17T07:29:09.878Z,58.60
2018-05-17T07:31:37.831Z,59.60
2018-05-17T07:36:41.096Z,57.70
2018-05-17T07:39:08.157Z,57.80
2018-05-17T07:41:35.810Z,57.70
2018-05-17T07:44:04.822Z,55.80
2018-05-17T07:46:31.049Z,55.40
2018-05-17T07:48:57.227Z,55.40
2018-05-17T07:51:24.140Z,55.40
2018-05-17T07:53:50.327Z,55.40
2018-05-17T07:56:18.534Z,54.00
2018-05-17T07:58:44.709Z,55.50
2018-05-17T08:01:12.270Z,54.60
2018-05-17T08:03:40.589Z,53.40
2018-05-17T08:06:07.625Z,53.40
2018-05-17T08:08:33.862Z,52.90
2018-05-17T08:11:00.110Z,53.00
2018-05-17T08:13:26.369Z,52.30
2018-05-17T08:15:52.557Z,51.10
2018-05-17T08:18:18.779Z,51.20
2018-05-17T08:20:45.955Z,49.40
2018-05-17T08:23:12.115Z,49.90
2018-05-17T08:25:39.092Z,50.20
2018-05-17T08:28:05.283Z,50.70
2018-05-17T08:30:31.457Z,51.40
2018-05-17T08:32:58.389Z,52.80
2018-05-17T08:35:25.261Z,52.40
2018-05-17T08:37:52.038Z,51.70
2018-05-17T08:40:18.258Z,51.70
2018-05-17T08:42:44.608Z,51.60
2018-05-17T08:45:10.806Z,50.70
2018-05-17T08:47:37.079Z,52.30
2018-05-17T08:50:04.025Z,50.30
2018-05-17T08:52:31.005Z,50.10
2018-05-17T08:54:57.218Z,50.10
2018-05-17T08:57:23.457Z,49.80
2018-05-17T08:59:49.688Z,49.20
2018-05-17T09:02:16.584Z,48.10
2018-05-17T09:04:42.763Z,48.00
2018-05-17T09:07:08.945Z,49.30
2018-05-17T09:09:36.726Z,49.30
2018-05-17T09:12:04.349Z,48.80
2018-05-17T09:14:30.542Z,48.80
2018-05-17T09:16:56.861Z,49.30
2018-05-17T09:19:24.094Z,48.10
2018-05-17T09:21:51.144Z,48.80
2018-05-17T09:24:18.093Z,47.30
2018-05-17T09:26:45.061Z,47.30
2018-05-17T09:29:11.327Z,47.30
2018-05-17T09:31:38.203Z,47.80
2018-05-17T09:34:05.864Z,48.90
2018-05-17T09:36:34.185Z,46.70
2018-05-17T09:39:00.426Z,46.60
2018-05-17T09:41:26.658Z,45.70
2018-05-17T09:43:54.317Z,45.30
2018-05-17T09:46:22.109Z,46.70
2018-05-17T09:48:50.859Z,45.70
2018-05-17T09:51:20.931Z,46.20
2018-05-17T09:53:47.178Z,45.20
2018-05-17T09:56:14.161Z,45.60
2018-05-17T09:58:41.256Z,45.70
2018-05-17T10:01:12.746Z,44.50
2018-05-17T10:03:38.954Z,43.90
2018-05-17T10:06:12.342Z,42.60
2018-05-17T10:08:39.820Z,43.20
2018-05-17T10:11:06.007Z,43.20
2018-05-17T10:13:33.864Z,43.70
2018-05-17T10:16:00.086Z,44.50
2018-05-17T10:18:28.598Z,41.90
2018-05-17T10:20:54.825Z,43.70
2018-05-17T10:23:21.998Z,42.70
2018-05-17T10:25:48.996Z,43.80
2018-05-17T10:28:15.257Z,43.90
2018-05-17T10:30:42.238Z,43.30
2018-05-17T10:33:08.525Z,43.10
2018-05-17T10:35:36.777Z,43.10
2018-05-17T10:38:02.981Z,43.20
2018-05-17T10:40:29.999Z,43.50
2018-05-17T10:42:57.631Z,44.20
2018-05-17T10:45:24.821Z,44.30
2018-05-17T10:47:52.624Z,43.50
2018-05-17T10:50:19.403Z,43.50
2018-05-17T10:52:46.148Z,42.00
2018-05-17T10:55:14.054Z,41.80
2018-05-17T10:57:40.306Z,41.70
2018-05-17T11:00:07.495Z,40.20
2018-05-17T11:02:34.645Z,41.10
2018-05-17T11:05:01.848Z,41.50
2018-05-17T11:07:30.323Z,41.20
2018-05-17T11:09:59.036Z,44.20
2018-05-17T11:12:25.268Z,41.30
2018-05-17T11:14:53.048Z,42.50
2018-05-17T11:17:20.362Z,41.90
2018-05-17T11:19:46.560Z,42.10
2018-05-17T11:22:13.533Z,42.50
2018-05-17T11:24:39.701Z,42.50
2018-05-17T11:27:10.055Z,41.30
2018-05-17T11:29:36.976Z,42.50
2018-05-17T11:32:04.056Z,42.40
2018-05-17T11:34:31.872Z,43.60
2018-05-17T11:36:58.108Z,43.40
2018-05-17T11:39:25.236Z,41.90
2018-05-17T11:41:51.410Z,44.50
2018-05-17T11:44:17.605Z,41.50
2018-05-17T11:46:43.806Z,42.80
2018-05-17T11:49:10.069Z,41.40
2018-05-17T11:51:37.108Z,42.40
2018-05-17T11:54:04.155Z,44.40
2018-05-17T11:56:30.505Z,42.00
2018-05-17T11:58:57.321Z,42.80
2018-05-17T12:01:25.091Z,43.30
2018-05-17T12:03:51.348Z,41.80
2018-05-17T12:06:21.312Z,40.30
2018-05-17T12:08:48.354Z,39.60
2018-05-17T12:11:15.332Z,40.40
2018-05-17T12:13:41.555Z,40.60
2018-05-17T12:16:07.753Z,41.20
2018-05-17T12:18:35.493Z,39.90
2018-05-17T12:21:01.777Z,40.00
2018-05-17T12:23:30.895Z,40.20
2018-05-17T12:25:58.142Z,40.20
2018-05-17T12:28:25.532Z,41.50
2018-05-17T12:30:52.369Z,40.90
2018-05-17T12:33:20.285Z,42.30
2018-05-17T12:35:48.713Z,41.50
2018-05-17T12:38:19.468Z,40.60
2018-05-17T12:40:46.457Z,41.40
2018-05-17T12:43:13.353Z,41.00
2018-05-17T12:45:39.619Z,40.20
2018-05-17T12:48:09.945Z,40.30
2018-05-17T12:50:36.765Z,41.30
2018-05-17T12:53:07.596Z,41.40
2018-05-17T12:55:35.605Z,39.30
2018-05-17T12:58:03.708Z,39.30
2018-05-17T13:00:31.433Z,39.30
2018-05-17T13:02:58.699Z,39.90
2018-05-17T13:05:25.276Z,41.10
2018-05-17T13:07:51.499Z,39.80
2018-05-17T13:10:17.711Z,40.60
2018-05-17T13:12:45.306Z,41.60
2018-05-17T13:15:12.450Z,41.00
2018-05-17T13:17:39.425Z,41.40
2018-05-17T13:20:07.038Z,42.40
2018-05-17T13:22:38.991Z,42.60
2018-05-17T13:25:07.533Z,41.70
2018-05-17T13:27:34.503Z,41.50
2018-05-17T13:30:01.389Z,41.50
2018-05-17T13:32:28.205Z,42.00
2018-05-17T13:34:55.658Z,41.70
2018-05-17T13:37:23.452Z,42.10
2018-05-17T13:39:49.637Z,42.80
2018-05-17T13:42:15.833Z,42.00
2018-05-17T13:44:43.808Z,43.40
2018-05-17T13:47:11.674Z,44.80
2018-05-17T13:49:38.654Z,43.60
2018-05-17T13:52:08.082Z,43.60
2018-05-17T13:54:35.695Z,43.70
2018-05-17T13:57:04.071Z,42.60
2018-05-17T13:59:31.916Z,43.70
2018-05-17T14:02:02.237Z,43.60
2018-05-17T14:04:29.167Z,44.30
2018-05-17T14:06:55.397Z,44.60
2018-05-17T14:09:22.151Z,44.60
2018-05-17T14:11:50.242Z,43.70
2018-05-17T14:14:17.190Z,42.90
2018-05-17T14:16:46.166Z,42.50
2018-05-17T14:19:15.400Z,42.50
2018-05-17T14:21:43.046Z,41.80
2018-05-17T14:24:10.057Z,41.80
2018-05-17T14:26:36.325Z,41.80
2018-05-17T14:29:04.891Z,41.50
2018-05-17T14:31:32.708Z,41.50
2018-05-17T14:34:02.067Z,42.80
2018-05-17T14:36:28.853Z,42.10
2018-05-17T14:38:55.077Z,42.10
2018-05-17T14:41:23.977Z,41.50
2018-05-17T14:43:51.698Z,41.70
2018-05-17T14:46:18.598Z,42.20
2018-05-17T14:48:55.730Z,42.10
2018-05-17T14:51:24.355Z,42.10
2018-05-17T14:53:50.616Z,42.10
2018-05-17T14:56:17.616Z,42.10
2018-05-17T14:58:45.399Z,42.10
2018-05-17T15:01:12.614Z,42.10
2018-05-17T15:03:38.752Z,42.10
2018-05-17T15:06:06.911Z,42.10
2018-05-17T15:08:35.867Z,42.00
2018-05-17T15:11:05.068Z,42.00
2018-05-17T15:13:32.654Z,41.90
2018-05-17T15:16:00.172Z,41.90
2018-05-17T15:18:26.410Z,41.80
2018-05-17T15:20:54.561Z,41.80
2018-05-17T15:23:24.408Z,41.80
2018-05-17T15:25:54.754Z,41.80
2018-05-17T15:28:22.403Z,42.10
2018-05-17T15:30:49.812Z,41.80
2018-05-17T15:33:17.871Z,42.10
2018-05-17T15:35:45.682Z,41.80
2018-05-17T15:38:12.891Z,41.80
2018-05-17T15:40:41.684Z,42.10
2018-05-17T15:43:10.174Z,42.00
2018-05-17T15:45:36.480Z,42.00
2018-05-17T15:48:04.051Z,43.20
2018-05-17T15:50:31.225Z,42.80
2018-05-17T15:52:58.878Z,42.80
2018-05-17T15:55:26.105Z,43.30
2018-05-17T15:57:56.152Z,42.30
2018-05-17T16:00:22.385Z,42.20
2018-05-17T16:02:50.761Z,42.80
2018-05-17T16:05:16.983Z,42.90
2018-05-17T16:07:43.961Z,43.30
2018-05-17T16:10:10.252Z,43.30
2018-05-17T16:12:37.891Z,44.00
2018-05-17T16:15:04.505Z,44.00
2018-05-17T16:17:31.498Z,44.30
2018-05-17T16:19:58.522Z,43.80
2018-05-17T16:22:26.321Z,44.20
2018-05-17T16:24:52.605Z,43.70
2018-05-17T16:27:19.907Z,44.10
2018-05-17T16:29:47.012Z,43.50
2018-05-17T16:32:13.244Z,44.20
2018-05-17T16:34:40.099Z,45.30
2018-05-17T16:37:07.059Z,45.80
2018-05-17T16:39:34.024Z,45.30
2018-05-17T16:42:00.810Z,45.20
2018-05-17T16:44:27.192Z,45.20
2018-05-17T16:46:54.156Z,45.10
2018-05-17T16:49:20.449Z,45.10
2018-05-17T16:51:47.425Z,45.00
2018-05-17T16:54:15.435Z,45.00
2018-05-17T16:56:44.411Z,45.00
2018-05-17T16:59:10.684Z,45.00
2018-05-17T17:01:37.565Z,46.00
2018-05-17T17:04:03.785Z,46.40
2018-05-17T17:06:30.020Z,45.00
2018-05-17T17:08:56.361Z,45.90
2018-05-17T17:11:23.200Z,45.50
2018-05-17T17:13:49.509Z,44.90
2018-05-17T17:16:17.072Z,46.30
2018-05-17T17:18:44.002Z,47.00
2018-05-17T17:21:10.244Z,46.40
2018-05-17T17:23:37.228Z,46.90
2018-05-17T17:26:03.468Z,46.30
2018-05-17T17:28:29.822Z,46.80
2018-05-17T17:30:57.025Z,45.60
2018-05-17T17:33:23.224Z,45.40
2018-05-17T17:35:50.196Z,47.20
2018-05-17T17:38:17.041Z,46.40
2018-05-17T17:40:49.391Z,45.80
2018-05-17T17:43:16.377Z,48.10
2018-05-17T17:45:42.706Z,48.00
2018-05-17T17:48:09.085Z,45.80
2018-05-17T17:50:35.298Z,46.30
2018-05-17T17:53:01.537Z,46.80
2018-05-17T17:55:27.753Z,45.80
2018-05-17T17:57:53.998Z,48.00
2018-05-17T18:00:20.268Z,46.60
2018-05-17T18:02:46.487Z,46.20
2018-05-17T18:05:13.555Z,47.70
2018-05-17T18:07:39.685Z,47.60
2018-05-17T18:10:05.911Z,47.40
2018-05-17T18:12:32.179Z,46.90
2018-05-17T18:14:58.327Z,46.00
2018-05-17T18:17:24.622Z,46.30
2018-05-17T18:19:51.706Z,47.10
2018-05-17T18:22:19.412Z,46.30
2018-05-17T18:24:47.666Z,47.00
2018-05-17T18:27:15.876Z,46.10
2018-05-17T18:29:42.135Z,46.30
2018-05-17T18:32:09.959Z,46.70
2018-05-17T18:34:36.305Z,46.50
2018-05-17T18:37:06.590Z,46.00
2018-05-17T18:39:34.189Z,46.20
2018-05-17T18:42:01.111Z,46.10
2018-05-17T18:44:29.275Z,46.30
2018-05-17T18:46:56.255Z,46.20
2018-05-17T18:49:22.508Z,46.20
2018-05-17T18:51:49.759Z,46.30
2018-05-17T18:54:16.977Z,46.40
2018-05-17T18:56:43.210Z,46.20
2018-05-17T18:59:13.052Z,46.20
2018-05-17T19:01:40.178Z,46.80
2018-05-17T19:04:09.075Z,46.20
2018-05-17T19:06:35.378Z,46.80
2018-05-17T19:09:06.402Z,46.40
2018-05-17T19:11:36.306Z,46.80
2018-05-17T19:14:04.202Z,46.70
2018-05-17T19:16:32.929Z,47.70
2018-05-17T19:18:59.161Z,46.60
2018-05-17T19:21:25.439Z,46.20
2018-05-17T19:23:52.425Z,46.90
2018-05-17T19:26:18.769Z,46.90
2018-05-17T19:28:45.041Z,46.90
2018-05-17T19:31:12.485Z,46.80
2018-05-17T19:33:39.518Z,46.70
2018-05-17T19:36:05.801Z,46.70
2018-05-17T19:38:32.042Z,47.20
2018-05-17T19:40:58.293Z,47.10
2018-05-17T19:43:25.448Z,47.10
2018-05-17T19:45:55.808Z,46.90
2018-05-17T19:48:23.002Z,46.70
2018-05-17T19:50:49.262Z,46.70
2018-05-17T19:53:15.524Z,46.20
2018-05-17T19:55:42.516Z,47.30
2018-05-17T19:58:11.077Z,47.30
2018-05-17T20:00:37.874Z,47.20
2018-05-17T20:03:05.222Z,47.00
2018-05-17T20:05:31.578Z,47.30
2018-05-17T20:07:59.515Z,47.70
2018-05-17T20:10:28.594Z,47.60
2018-05-17T20:12:54.854Z,47.70
2018-05-17T20:15:21.164Z,47.20
2018-05-17T20:17:47.368Z,47.10
2018-05-17T20:20:28.604Z,47.30
2018-05-17T20:22:54.820Z,47.00
2018-05-17T20:25:21.072Z,47.00
2018-05-17T20:27:47.813Z,45.00
2018-05-17T20:30:14.605Z,46.90
2018-05-17T20:32:41.652Z,46.10
2018-05-17T20:35:12.166Z,46.00
2018-05-17T20:37:41.189Z,45.60
2018-05-17T20:40:10.045Z,46.50
2018-05-17T20:42:38.845Z,47.30
2018-05-17T20:45:08.974Z,47.20
2018-05-17T20:47:37.756Z,47.60
2018-05-17T20:50:06.189Z,47.10
2018-05-17T20:52:34.202Z,47.10
2018-05-17T20:57:54.045Z,48.20
2018-05-17T21:00:21.163Z,47.90
2018-05-17T21:02:47.400Z,48.40
2018-05-17T21:05:16.596Z,48.00
2018-05-17T21:07:51.352Z,48.60
2018-05-17T21:10:18.539Z,48.50
2018-05-17T21:12:46.428Z,48.70
2018-05-17T21:15:17.076Z,49.00
2018-05-17T21:17:44.949Z,49.00
2018-05-17T21:20:13.517Z,48.60
2018-05-17T21:22:43.240Z,48.50
2018-05-17T21:25:09.447Z,49.10
2018-05-17T21:27:36.363Z,49.40
2018-05-17T21:30:06.246Z,49.50
2018-05-17T21:32:34.060Z,49.40
2018-05-17T21:35:01.761Z,49.60
2018-05-17T21:37:29.524Z,49.60
2018-05-17T21:39:55.768Z,49.50
2018-05-17T21:42:21.989Z,49.80
2018-05-17T21:44:48.346Z,49.70
2018-05-17T21:47:16.034Z,50.20
2018-05-17T21:49:43.362Z,50.10
2018-05-17T21:52:10.290Z,49.80
2018-05-17T21:54:37.066Z,49.70
2018-05-17T21:57:03.438Z,50.50
2018-05-17T21:59:30.967Z,50.50
2018-05-17T22:01:58.925Z,50.30
2018-05-17T22:04:28.274Z,50.30
2018-05-17T22:06:57.918Z,51.50
2018-05-17T22:09:25.683Z,50.90
2018-05-17T22:12:01.487Z,50.80
2018-05-17T22:14:28.584Z,51.80
2018-05-17T22:16:55.791Z,51.70
2018-05-17T22:19:23.573Z,51.20
2018-05-17T22:21:56.920Z,51.30
2018-05-17T22:24:24.593Z,51.20
2018-05-17T22:26:56.183Z,51.30
2018-05-17T22:29:24.382Z,51.20
2018-05-17T22:31:50.579Z,52.10
2018-05-17T22:34:18.258Z,52.30
2018-05-17T22:36:46.887Z,51.90
2018-05-17T22:39:13.064Z,51.40
2018-05-17T22:41:39.812Z,52.20
2018-05-17T22:44:07.063Z,52.50
2018-05-17T22:46:33.850Z,52.50
2018-05-17T22:49:00.977Z,52.90
2018-05-17T22:51:27.201Z,53.60
2018-05-17T22:53:53.380Z,53.00
2018-05-17T22:56:33.654Z,53.10
2018-05-17T22:59:01.348Z,53.10
2018-05-17T23:01:27.529Z,53.30
2018-05-17T23:03:54.458Z,53.40
2018-05-17T23:06:20.753Z,53.40
2018-05-17T23:08:47.500Z,53.90
2018-05-17T23:11:13.745Z,53.80
2018-05-17T23:13:40.721Z,53.70
2018-05-17T23:16:07.636Z,53.90
2018-05-17T23:18:35.250Z,54.30
2018-05-17T23:21:02.032Z,54.30
2018-05-17T23:23:28.298Z,54.40
2018-05-17T23:25:55.294Z,55.20
2018-05-17T23:28:21.498Z,55.10
2018-05-17T23:30:48.728Z,55.00
2018-05-17T23:33:16.305Z,55.60
2018-05-17T23:35:42.514Z,55.50
2018-05-17T23:38:09.477Z,55.30
2018-05-17T23:41:09.474Z,55.30
2018-05-17T23:43:36.454Z,55.60
2018-05-17T23:46:02.755Z,55.90
2018-05-17T23:48:31.283Z,56.00
2018-05-17T23:50:58.253Z,56.10
2018-05-17T23:53:24.507Z,56.20
2018-05-17T23:55:52.089Z,56.40
2018-05-17T23:58:19.633Z,56.30
